sensor_id;sensor_type;location;lat;lon;timestamp;P1;durP1;ratioP1;P2;durP2;ratioP2
53674;SDS011;39574;50.534;8.500;2023-03-12T00:03:42;19.2;;;11.5;;
53674;SDS011;39574;50.534;8.500;2023-03-12T00:08:42;17.9;;;10.8;;
53674;SDS011;39574;50.534;8.500;2023-03-12T00:13:39;15.9;;;9.4;;
53674;SDS011;39574;50.534;8.500;2023-03-12T00:18:38;16.8;;;9.6;;
53674;SDS011;39574;50.534;8.500;2023-03-12T00:23:37;16.3;;;9.4;;
53674;SDS011;39574;50.534;8.500;2023-03-12T00:28:38;19.5;;;11.2;;
53674;SDS011;39574;50.534;8.500;2023-03-12T00:33:34;20.4;;;11.9;;
53674;SDS011;39574;50.534;8.500;2023-03-12T00:38:32;21.8;;;12.7;;
53674;SDS011;39574;50.534;8.500;2023-03-12T00:43:34;19.6;;;11.4;;
53674;SDS011;39574;50.534;8.500;2023-03-12T00:48:30;17.8;;;10.4;;
53674;SDS011;39574;50.534;8.500;2023-03-12T00:53:28;19.6;;;11.3;;
53674;SDS011;39574;50.534;8.500;2023-03-12T00:58:27;20.9;;;11.4;;
53674;SDS011;39574;50.534;8.500;2023-03-12T01:03:26;18.3;;;9.8;;
53674;SDS011;39574;50.534;8.500;2023-03-12T01:08:24;15.4;;;8.3;;
53674;SDS011;39574;50.534;8.500;2023-03-12T01:13:23;12.9;;;7.1;;
53674;SDS011;39574;50.534;8.500;2023-03-12T01:18:22;11.5;;;6.6;;
53674;SDS011;39574;50.534;8.500;2023-03-12T01:23:20;11.5;;;6.1;;
53674;SDS011;39574;50.534;8.500;2023-03-12T01:28:19;11.1;;;6.0;;
53674;SDS011;39574;50.534;8.500;2023-03-12T01:33:18;11.2;;;5.7;;
53674;SDS011;39574;50.534;8.500;2023-03-12T01:38:17;11.0;;;5.5;;
53674;SDS011;39574;50.534;8.500;2023-03-12T01:43:23;10.4;;;5.7;;
53674;SDS011;39574;50.534;8.500;2023-03-12T01:48:13;10.4;;;5.5;;
53674;SDS011;39574;50.534;8.500;2023-03-12T01:53:12;10.6;;;5.8;;
53674;SDS011;39574;50.534;8.500;2023-03-12T01:58:10;11.0;;;5.9;;
53674;SDS011;39574;50.534;8.500;2023-03-12T02:03:09;9.9;;;5.6;;
53674;SDS011;39574;50.534;8.500;2023-03-12T02:08:09;9.2;;;5.5;;
53674;SDS011;39574;50.534;8.500;2023-03-12T02:13:06;8.6;;;4.9;;
53674;SDS011;39574;50.534;8.500;2023-03-12T02:18:06;7.8;;;4.4;;
53674;SDS011;39574;50.534;8.500;2023-03-12T02:23:04;7.7;;;4.1;;
53674;SDS011;39574;50.534;8.500;2023-03-12T02:28:05;8.3;;;4.2;;
53674;SDS011;39574;50.534;8.500;2023-03-12T02:33:01;8.7;;;4.4;;
53674;SDS011;39574;50.534;8.500;2023-03-12T02:38:00;8.9;;;4.5;;
53674;SDS011;39574;50.534;8.500;2023-03-12T02:42:58;8.9;;;4.5;;
53674;SDS011;39574;50.534;8.500;2023-03-12T02:47:57;8.5;;;4.6;;
53674;SDS011;39574;50.534;8.500;2023-03-12T02:52:55;8.5;;;4.7;;
53674;SDS011;39574;50.534;8.500;2023-03-12T02:57:54;8.6;;;4.7;;
53674;SDS011;39574;50.534;8.500;2023-03-12T03:02:53;8.8;;;4.8;;
53674;SDS011;39574;50.534;8.500;2023-03-12T03:07:51;9.9;;;5.1;;
53674;SDS011;39574;50.534;8.500;2023-03-12T03:12:50;9.3;;;5.3;;
53674;SDS011;39574;50.534;8.500;2023-03-12T03:17:48;9.5;;;5.6;;
53674;SDS011;39574;50.534;8.500;2023-03-12T03:22:47;10.1;;;5.7;;
53674;SDS011;39574;50.534;8.500;2023-03-12T03:27:46;9.7;;;5.8;;
53674;SDS011;39574;50.534;8.500;2023-03-12T03:32:44;10.1;;;6.0;;
53674;SDS011;39574;50.534;8.500;2023-03-12T03:37:43;10.6;;;6.2;;
53674;SDS011;39574;50.534;8.500;2023-03-12T03:42:42;11.2;;;6.5;;
53674;SDS011;39574;50.534;8.500;2023-03-12T03:47:40;11.8;;;6.6;;
53674;SDS011;39574;50.534;8.500;2023-03-12T03:52:40;12.1;;;6.5;;
53674;SDS011;39574;50.534;8.500;2023-03-12T03:57:38;12.5;;;6.5;;
53674;SDS011;39574;50.534;8.500;2023-03-12T04:02:36;12.8;;;6.6;;
53674;SDS011;39574;50.534;8.500;2023-03-12T04:07:35;12.9;;;6.6;;
53674;SDS011;39574;50.534;8.500;2023-03-12T04:12:34;12.3;;;6.5;;
53674;SDS011;39574;50.534;8.500;2023-03-12T04:17:32;11.5;;;6.4;;
53674;SDS011;39574;50.534;8.500;2023-03-12T04:22:31;11.2;;;6.5;;
53674;SDS011;39574;50.534;8.500;2023-03-12T04:27:30;11.7;;;6.7;;
53674;SDS011;39574;50.534;8.500;2023-03-12T04:32:28;12.6;;;6.9;;
53674;SDS011;39574;50.534;8.500;2023-03-12T04:37:27;12.7;;;7.2;;
53674;SDS011;39574;50.534;8.500;2023-03-12T04:42:25;11.9;;;6.9;;
53674;SDS011;39574;50.534;8.500;2023-03-12T04:47:24;11.7;;;7.0;;
53674;SDS011;39574;50.534;8.500;2023-03-12T04:52:23;11.3;;;6.6;;
53674;SDS011;39574;50.534;8.500;2023-03-12T04:57:21;11.4;;;6.5;;
53674;SDS011;39574;50.534;8.500;2023-03-12T05:02:20;11.0;;;6.5;;
53674;SDS011;39574;50.534;8.500;2023-03-12T05:07:18;10.6;;;6.2;;
53674;SDS011;39574;50.534;8.500;2023-03-12T05:12:17;10.5;;;6.0;;
53674;SDS011;39574;50.534;8.500;2023-03-12T05:17:16;10.8;;;6.1;;
53674;SDS011;39574;50.534;8.500;2023-03-12T05:22:14;11.9;;;6.3;;
53674;SDS011;39574;50.534;8.500;2023-03-12T05:27:13;11.6;;;6.4;;
53674;SDS011;39574;50.534;8.500;2023-03-12T05:32:12;10.7;;;6.2;;
53674;SDS011;39574;50.534;8.500;2023-03-12T05:37:13;10.5;;;6.1;;
53674;SDS011;39574;50.534;8.500;2023-03-12T05:42:10;10.5;;;6.2;;
53674;SDS011;39574;50.534;8.500;2023-03-12T05:47:10;10.6;;;6.3;;
53674;SDS011;39574;50.534;8.500;2023-03-12T05:52:07;11.6;;;6.5;;
53674;SDS011;39574;50.534;8.500;2023-03-12T05:57:05;11.8;;;6.7;;
53674;SDS011;39574;50.534;8.500;2023-03-12T06:02:05;11.1;;;6.9;;
53674;SDS011;39574;50.534;8.500;2023-03-12T06:07:03;11.7;;;7.2;;
53674;SDS011;39574;50.534;8.500;2023-03-12T06:12:01;13.4;;;7.6;;
53674;SDS011;39574;50.534;8.500;2023-03-12T06:16:59;12.9;;;7.7;;
53674;SDS011;39574;50.534;8.500;2023-03-12T06:21:59;14.2;;;8.2;;
53674;SDS011;39574;50.534;8.500;2023-03-12T06:26:57;15.5;;;8.9;;
53674;SDS011;39574;50.534;8.500;2023-03-12T06:31:55;15.8;;;9.1;;
53674;SDS011;39574;50.534;8.500;2023-03-12T06:36:54;16.3;;;9.0;;
53674;SDS011;39574;50.534;8.500;2023-03-12T06:41:53;15.2;;;8.8;;
53674;SDS011;39574;50.534;8.500;2023-03-12T06:46:51;16.4;;;9.4;;
53674;SDS011;39574;50.534;8.500;2023-03-12T06:51:50;16.1;;;9.4;;
53674;SDS011;39574;50.534;8.500;2023-03-12T06:56:49;15.5;;;9.1;;
53674;SDS011;39574;50.534;8.500;2023-03-12T07:01:47;15.2;;;9.0;;
53674;SDS011;39574;50.534;8.500;2023-03-12T07:06:46;14.8;;;9.0;;
53674;SDS011;39574;50.534;8.500;2023-03-12T07:11:45;15.5;;;9.6;;
53674;SDS011;39574;50.534;8.500;2023-03-12T07:16:44;16.7;;;10.2;;
53674;SDS011;39574;50.534;8.500;2023-03-12T07:21:42;17.0;;;10.6;;
53674;SDS011;39574;50.534;8.500;2023-03-12T07:26:41;16.8;;;10.5;;
53674;SDS011;39574;50.534;8.500;2023-03-12T07:31:40;16.3;;;10.5;;
53674;SDS011;39574;50.534;8.500;2023-03-12T07:36:40;15.6;;;10.1;;
53674;SDS011;39574;50.534;8.500;2023-03-12T07:41:37;15.0;;;9.9;;
53674;SDS011;39574;50.534;8.500;2023-03-12T07:51:34;14.9;;;10.0;;
53674;SDS011;39574;50.534;8.500;2023-03-12T07:56:32;15.5;;;9.7;;
53674;SDS011;39574;50.534;8.500;2023-03-12T08:01:32;16.3;;;9.9;;
53674;SDS011;39574;50.534;8.500;2023-03-12T08:06:30;16.1;;;10.0;;
53674;SDS011;39574;50.534;8.500;2023-03-12T08:11:29;16.3;;;10.5;;
53674;SDS011;39574;50.534;8.500;2023-03-12T08:16:27;17.1;;;10.7;;
53674;SDS011;39574;50.534;8.500;2023-03-12T08:21:26;16.5;;;10.4;;
53674;SDS011;39574;50.534;8.500;2023-03-12T08:26:24;16.3;;;10.3;;
53674;SDS011;39574;50.534;8.500;2023-03-12T08:31:23;16.0;;;9.8;;
53674;SDS011;39574;50.534;8.500;2023-03-12T08:36:21;16.1;;;10.1;;
53674;SDS011;39574;50.534;8.500;2023-03-12T08:41:20;15.9;;;10.3;;
53674;SDS011;39574;50.534;8.500;2023-03-12T08:46:20;16.0;;;10.4;;
53674;SDS011;39574;50.534;8.500;2023-03-12T08:51:17;17.7;;;10.8;;
53674;SDS011;39574;50.534;8.500;2023-03-12T08:56:21;18.2;;;10.8;;
53674;SDS011;39574;50.534;8.500;2023-03-12T09:01:17;18.3;;;11.0;;
53674;SDS011;39574;50.534;8.500;2023-03-12T09:06:13;17.8;;;11.2;;
53674;SDS011;39574;50.534;8.500;2023-03-12T09:11:13;17.6;;;11.3;;
53674;SDS011;39574;50.534;8.500;2023-03-12T09:16:11;17.0;;;11.2;;
53674;SDS011;39574;50.534;8.500;2023-03-12T09:21:09;17.3;;;11.0;;
53674;SDS011;39574;50.534;8.500;2023-03-12T09:26:08;19.7;;;12.8;;
53674;SDS011;39574;50.534;8.500;2023-03-12T09:31:08;17.8;;;11.8;;
53674;SDS011;39574;50.534;8.500;2023-03-12T09:36:06;16.9;;;11.3;;
53674;SDS011;39574;50.534;8.500;2023-03-12T09:41:05;15.9;;;10.8;;
53674;SDS011;39574;50.534;8.500;2023-03-12T09:46:03;15.6;;;10.5;;
53674;SDS011;39574;50.534;8.500;2023-03-12T09:51:02;16.1;;;10.8;;
53674;SDS011;39574;50.534;8.500;2023-03-12T09:56:01;17.6;;;11.1;;
53674;SDS011;39574;50.534;8.500;2023-03-12T10:01:00;17.2;;;10.9;;
53674;SDS011;39574;50.534;8.500;2023-03-12T10:06:00;15.8;;;10.5;;
53674;SDS011;39574;50.534;8.500;2023-03-12T10:10:57;15.8;;;10.7;;
53674;SDS011;39574;50.534;8.500;2023-03-12T10:16:01;16.5;;;11.0;;
53674;SDS011;39574;50.534;8.500;2023-03-12T10:20:59;17.6;;;11.7;;
53674;SDS011;39574;50.534;8.500;2023-03-12T10:25:54;18.4;;;11.7;;
53674;SDS011;39574;50.534;8.500;2023-03-12T10:30:53;18.5;;;12.0;;
53674;SDS011;39574;50.534;8.500;2023-03-12T10:35:50;19.7;;;12.2;;
53674;SDS011;39574;50.534;8.500;2023-03-12T10:40:48;20.2;;;12.4;;
53674;SDS011;39574;50.534;8.500;2023-03-12T10:45:51;20.1;;;12.6;;
53674;SDS011;39574;50.534;8.500;2023-03-12T10:50:58;19.2;;;12.9;;
53674;SDS011;39574;50.534;8.500;2023-03-12T10:55:52;19.3;;;13.4;;
53674;SDS011;39574;50.534;8.500;2023-03-12T11:00:45;18.0;;;13.0;;
53674;SDS011;39574;50.534;8.500;2023-03-12T11:05:44;18.7;;;13.1;;
53674;SDS011;39574;50.534;8.500;2023-03-12T11:10:41;18.8;;;13.0;;
53674;SDS011;39574;50.534;8.500;2023-03-12T11:15:40;17.8;;;12.3;;
53674;SDS011;39574;50.534;8.500;2023-03-12T11:20:38;16.6;;;11.6;;
53674;SDS011;39574;50.534;8.500;2023-03-12T11:25:37;16.2;;;11.8;;
53674;SDS011;39574;50.534;8.500;2023-03-12T11:30:37;16.8;;;11.8;;
53674;SDS011;39574;50.534;8.500;2023-03-12T11:35:38;16.2;;;11.4;;
53674;SDS011;39574;50.534;8.500;2023-03-12T11:40:40;15.4;;;10.8;;
53674;SDS011;39574;50.534;8.500;2023-03-12T11:45:34;14.2;;;9.8;;
53674;SDS011;39574;50.534;8.500;2023-03-12T11:50:34;13.5;;;9.5;;
53674;SDS011;39574;50.534;8.500;2023-03-12T11:55:35;12.8;;;9.1;;
53674;SDS011;39574;50.534;8.500;2023-03-12T12:00:30;13.5;;;9.3;;
53674;SDS011;39574;50.534;8.500;2023-03-12T12:05:30;13.1;;;9.0;;
53674;SDS011;39574;50.534;8.500;2023-03-12T12:10:27;13.9;;;9.4;;
53674;SDS011;39574;50.534;8.500;2023-03-12T12:15:27;13.7;;;8.9;;
53674;SDS011;39574;50.534;8.500;2023-03-12T12:20:26;16.9;;;10.7;;
53674;SDS011;39574;50.534;8.500;2023-03-12T12:25:23;18.5;;;12.2;;
53674;SDS011;39574;50.534;8.500;2023-03-12T12:30:21;17.7;;;12.1;;
53674;SDS011;39574;50.534;8.500;2023-03-12T12:35:23;16.9;;;11.6;;
53674;SDS011;39574;50.534;8.500;2023-03-12T12:40:22;15.5;;;11.3;;
53674;SDS011;39574;50.534;8.500;2023-03-12T12:45:17;15.9;;;11.3;;
53674;SDS011;39574;50.534;8.500;2023-03-12T12:50:17;18.2;;;12.0;;
53674;SDS011;39574;50.534;8.500;2023-03-12T12:55:18;18.3;;;12.5;;
53674;SDS011;39574;50.534;8.500;2023-03-12T13:00:18;17.7;;;12.6;;
53674;SDS011;39574;50.534;8.500;2023-03-12T13:05:16;17.1;;;12.2;;
53674;SDS011;39574;50.534;8.500;2023-03-12T13:10:36;17.2;;;11.9;;
53674;SDS011;39574;50.534;8.500;2023-03-12T13:15:41;16.5;;;11.6;;
53674;SDS011;39574;50.534;8.500;2023-03-12T13:20:12;17.3;;;11.6;;
53674;SDS011;39574;50.534;8.500;2023-03-12T13:25:14;16.5;;;11.6;;
53674;SDS011;39574;50.534;8.500;2023-03-12T13:30:43;16.5;;;11.5;;
53674;SDS011;39574;50.534;8.500;2023-03-12T13:35:06;17.0;;;11.8;;
53674;SDS011;39574;50.534;8.500;2023-03-12T13:40:31;16.7;;;11.4;;
53674;SDS011;39574;50.534;8.500;2023-03-12T13:45:39;17.1;;;11.8;;
53674;SDS011;39574;50.534;8.500;2023-03-12T13:50:03;17.6;;;11.8;;
53674;SDS011;39574;50.534;8.500;2023-03-12T13:55:01;17.6;;;11.6;;
53674;SDS011;39574;50.534;8.500;2023-03-12T13:59:59;18.5;;;11.9;;
53674;SDS011;39574;50.534;8.500;2023-03-12T14:05:01;19.3;;;12.4;;
53674;SDS011;39574;50.534;8.500;2023-03-12T14:10:01;19.1;;;12.7;;
53674;SDS011;39574;50.534;8.500;2023-03-12T14:14:59;19.7;;;13.3;;
53674;SDS011;39574;50.534;8.500;2023-03-12T14:19:56;19.3;;;13.4;;
53674;SDS011;39574;50.534;8.500;2023-03-12T14:24:55;19.7;;;13.5;;
53674;SDS011;39574;50.534;8.500;2023-03-12T14:29:54;21.4;;;14.3;;
53674;SDS011;39574;50.534;8.500;2023-03-12T14:34:52;22.5;;;14.9;;
53674;SDS011;39574;50.534;8.500;2023-03-12T14:39:51;23.6;;;15.5;;
53674;SDS011;39574;50.534;8.500;2023-03-12T14:44:52;24.5;;;16.2;;
53674;SDS011;39574;50.534;8.500;2023-03-12T14:54:55;23.3;;;16.0;;
53674;SDS011;39574;50.534;8.500;2023-03-12T14:59:50;22.3;;;15.5;;
53674;SDS011;39574;50.534;8.500;2023-03-12T15:04:45;21.9;;;14.8;;
53674;SDS011;39574;50.534;8.500;2023-03-12T15:09:44;23.5;;;15.4;;
53674;SDS011;39574;50.534;8.500;2023-03-12T15:14:43;24.4;;;15.7;;
53674;SDS011;39574;50.534;8.500;2023-03-12T15:19:42;24.5;;;15.9;;
53674;SDS011;39574;50.534;8.500;2023-03-12T15:24:40;25.8;;;17.2;;
53674;SDS011;39574;50.534;8.500;2023-03-12T15:29:40;29.3;;;19.5;;
53674;SDS011;39574;50.534;8.500;2023-03-12T15:34:38;29.2;;;19.0;;
53674;SDS011;39574;50.534;8.500;2023-03-12T15:39:37;29.4;;;18.7;;
53674;SDS011;39574;50.534;8.500;2023-03-12T15:44:41;27.1;;;17.6;;
53674;SDS011;39574;50.534;8.500;2023-03-12T15:49:34;25.5;;;16.7;;
53674;SDS011;39574;50.534;8.500;2023-03-12T15:54:33;25.8;;;17.3;;
53674;SDS011;39574;50.534;8.500;2023-03-12T15:59:32;25.4;;;17.4;;
53674;SDS011;39574;50.534;8.500;2023-03-12T16:04:30;27.3;;;17.7;;
53674;SDS011;39574;50.534;8.500;2023-03-12T16:09:29;27.8;;;18.0;;
53674;SDS011;39574;50.534;8.500;2023-03-12T16:14:28;27.5;;;17.9;;
53674;SDS011;39574;50.534;8.500;2023-03-12T16:19:28;27.1;;;17.8;;
53674;SDS011;39574;50.534;8.500;2023-03-12T16:24:26;26.9;;;17.8;;
53674;SDS011;39574;50.534;8.500;2023-03-12T16:29:26;27.2;;;18.2;;
53674;SDS011;39574;50.534;8.500;2023-03-12T16:34:24;27.6;;;18.6;;
53674;SDS011;39574;50.534;8.500;2023-03-12T16:44:21;28.2;;;19.2;;
53674;SDS011;39574;50.534;8.500;2023-03-12T16:49:20;30.6;;;20.5;;
53674;SDS011;39574;50.534;8.500;2023-03-12T16:54:19;34.7;;;22.6;;
53674;SDS011;39574;50.534;8.500;2023-03-12T16:59:21;34.6;;;23.0;;
53674;SDS011;39574;50.534;8.500;2023-03-12T17:04:17;32.9;;;22.4;;
53674;SDS011;39574;50.534;8.500;2023-03-12T17:09:15;31.5;;;21.6;;
53674;SDS011;39574;50.534;8.500;2023-03-12T17:14:17;30.3;;;20.9;;
53674;SDS011;39574;50.534;8.500;2023-03-12T17:19:14;31.6;;;21.2;;
53674;SDS011;39574;50.534;8.500;2023-03-12T17:24:12;32.5;;;22.1;;
53674;SDS011;39574;50.534;8.500;2023-03-12T17:29:11;30.6;;;20.8;;
53674;SDS011;39574;50.534;8.500;2023-03-12T17:34:11;29.9;;;20.1;;
53674;SDS011;39574;50.534;8.500;2023-03-12T17:39:09;30.6;;;20.6;;
53674;SDS011;39574;50.534;8.500;2023-03-12T17:44:09;33.7;;;22.1;;
53674;SDS011;39574;50.534;8.500;2023-03-12T17:49:06;35.8;;;24.2;;
53674;SDS011;39574;50.534;8.500;2023-03-12T17:54:05;35.9;;;24.4;;
53674;SDS011;39574;50.534;8.500;2023-03-12T17:59:04;36.6;;;24.5;;
53674;SDS011;39574;50.534;8.500;2023-03-12T18:04:03;34.8;;;23.7;;
53674;SDS011;39574;50.534;8.500;2023-03-12T18:09:02;34.5;;;23.4;;
53674;SDS011;39574;50.534;8.500;2023-03-12T18:14:00;34.6;;;23.2;;
53674;SDS011;39574;50.534;8.500;2023-03-12T18:18:59;35.4;;;24.3;;
53674;SDS011;39574;50.534;8.500;2023-03-12T18:23:58;33.1;;;22.6;;
53674;SDS011;39574;50.534;8.500;2023-03-12T18:28:57;30.4;;;19.4;;
53674;SDS011;39574;50.534;8.500;2023-03-12T18:33:56;29.7;;;17.4;;
53674;SDS011;39574;50.534;8.500;2023-03-12T18:38:55;30.2;;;15.7;;
53674;SDS011;39574;50.534;8.500;2023-03-12T18:43:53;30.8;;;14.7;;
53674;SDS011;39574;50.534;8.500;2023-03-12T18:48:52;31.0;;;15.2;;
53674;SDS011;39574;50.534;8.500;2023-03-12T18:53:53;29.8;;;15.5;;
53674;SDS011;39574;50.534;8.500;2023-03-12T18:58:50;27.2;;;13.4;;
53674;SDS011;39574;50.534;8.500;2023-03-12T19:03:49;23.6;;;10.7;;
53674;SDS011;39574;50.534;8.500;2023-03-12T19:08:48;24.5;;;9.7;;
53674;SDS011;39574;50.534;8.500;2023-03-12T19:13:48;22.4;;;8.1;;
53674;SDS011;39574;50.534;8.500;2023-03-12T19:18:46;20.4;;;7.0;;
53674;SDS011;39574;50.534;8.500;2023-03-12T19:23:45;19.7;;;6.1;;
53674;SDS011;39574;50.534;8.500;2023-03-12T19:28:45;18.8;;;5.5;;
53674;SDS011;39574;50.534;8.500;2023-03-12T19:33:43;19.4;;;5.6;;
53674;SDS011;39574;50.534;8.500;2023-03-12T19:38:43;22.7;;;6.3;;
53674;SDS011;39574;50.534;8.500;2023-03-12T19:43:41;24.5;;;7.3;;
53674;SDS011;39574;50.534;8.500;2023-03-12T19:48:39;22.0;;;6.6;;
53674;SDS011;39574;50.534;8.500;2023-03-12T19:53:38;20.1;;;5.9;;
53674;SDS011;39574;50.534;8.500;2023-03-12T19:58:37;17.6;;;5.0;;
53674;SDS011;39574;50.534;8.500;2023-03-12T20:03:36;17.2;;;4.6;;
53674;SDS011;39574;50.534;8.500;2023-03-12T20:08:35;17.7;;;4.4;;
53674;SDS011;39574;50.534;8.500;2023-03-12T20:13:34;19.0;;;4.9;;
53674;SDS011;39574;50.534;8.500;2023-03-12T20:18:33;19.7;;;4.6;;
53674;SDS011;39574;50.534;8.500;2023-03-12T20:23:32;18.7;;;4.4;;
53674;SDS011;39574;50.534;8.500;2023-03-12T20:28:31;18.4;;;4.2;;
53674;SDS011;39574;50.534;8.500;2023-03-12T20:33:30;17.8;;;4.2;;
53674;SDS011;39574;50.534;8.500;2023-03-12T20:38:28;18.2;;;4.2;;
53674;SDS011;39574;50.534;8.500;2023-03-12T20:43:27;17.6;;;4.3;;
53674;SDS011;39574;50.534;8.500;2023-03-12T20:48:26;18.0;;;4.5;;
53674;SDS011;39574;50.534;8.500;2023-03-12T20:53:25;19.8;;;4.5;;
53674;SDS011;39574;50.534;8.500;2023-03-12T20:58:24;22.1;;;5.6;;
53674;SDS011;39574;50.534;8.500;2023-03-12T21:03:23;22.3;;;5.6;;
53674;SDS011;39574;50.534;8.500;2023-03-12T21:08:23;21.6;;;5.3;;
53674;SDS011;39574;50.534;8.500;2023-03-12T21:13:21;23.1;;;6.0;;
53674;SDS011;39574;50.534;8.500;2023-03-12T21:18:20;22.2;;;6.0;;
53674;SDS011;39574;50.534;8.500;2023-03-12T21:23:20;21.3;;;5.4;;
53674;SDS011;39574;50.534;8.500;2023-03-12T21:28:18;18.8;;;4.9;;
53674;SDS011;39574;50.534;8.500;2023-03-12T21:33:17;18.5;;;4.5;;
53674;SDS011;39574;50.534;8.500;2023-03-12T21:38:16;17.3;;;3.9;;
53674;SDS011;39574;50.534;8.500;2023-03-12T21:43:14;17.7;;;3.9;;
53674;SDS011;39574;50.534;8.500;2023-03-12T21:48:13;17.4;;;3.8;;
53674;SDS011;39574;50.534;8.500;2023-03-12T21:53:12;17.4;;;3.5;;
53674;SDS011;39574;50.534;8.500;2023-03-12T21:58:11;19.6;;;3.9;;
53674;SDS011;39574;50.534;8.500;2023-03-12T22:03:10;19.2;;;4.0;;
53674;SDS011;39574;50.534;8.500;2023-03-12T22:08:12;20.2;;;4.1;;
53674;SDS011;39574;50.534;8.500;2023-03-12T22:13:08;19.0;;;4.0;;
53674;SDS011;39574;50.534;8.500;2023-03-12T22:18:07;19.8;;;4.0;;
53674;SDS011;39574;50.534;8.500;2023-03-12T22:23:06;19.7;;;3.9;;
53674;SDS011;39574;50.534;8.500;2023-03-12T22:28:05;20.9;;;4.1;;
53674;SDS011;39574;50.534;8.500;2023-03-12T22:33:04;20.4;;;4.0;;
53674;SDS011;39574;50.534;8.500;2023-03-12T22:38:03;20.2;;;4.0;;
53674;SDS011;39574;50.534;8.500;2023-03-12T22:43:02;18.7;;;3.8;;
53674;SDS011;39574;50.534;8.500;2023-03-12T22:48:00;18.1;;;3.8;;
53674;SDS011;39574;50.534;8.500;2023-03-12T22:52:59;18.2;;;3.6;;
53674;SDS011;39574;50.534;8.500;2023-03-12T22:57:59;17.6;;;3.6;;
53674;SDS011;39574;50.534;8.500;2023-03-12T23:02:57;17.3;;;3.8;;
53674;SDS011;39574;50.534;8.500;2023-03-12T23:07:56;17.4;;;3.8;;
53674;SDS011;39574;50.534;8.500;2023-03-12T23:12:55;16.4;;;3.8;;
53674;SDS011;39574;50.534;8.500;2023-03-12T23:17:54;16.1;;;3.7;;
53674;SDS011;39574;50.534;8.500;2023-03-12T23:22:53;15.8;;;3.5;;
53674;SDS011;39574;50.534;8.500;2023-03-12T23:27:52;15.9;;;3.4;;
53674;SDS011;39574;50.534;8.500;2023-03-12T23:32:51;16.1;;;3.4;;
53674;SDS011;39574;50.534;8.500;2023-03-12T23:37:50;15.7;;;3.3;;
53674;SDS011;39574;50.534;8.500;2023-03-12T23:42:49;15.6;;;3.3;;
53674;SDS011;39574;50.534;8.500;2023-03-12T23:47:49;15.9;;;3.2;;
53674;SDS011;39574;50.534;8.500;2023-03-12T23:52:47;16.8;;;3.4;;
53674;SDS011;39574;50.534;8.500;2023-03-12T23:57:46;15.0;;;3.4;;
